Time;durP1;ratioP1;P1;durP2;ratioP2;P2;SDS_P1;SDS_P2;PMS_P1;PMS_P2;Temp;Humidity;BMP_temperature;BMP_pressure;BME280_temperature;BME280_humidity;BME280_pressure;Samples;Min_cycle;Max_cycle;Signal;HPM_P1;HPM_P2
2023/08/12 00:00:12;;;;;;;3.37;3.07;;;;;;;18.67;78.64;95209.00;5069027;28;20201;-44
2023/08/12 00:02:39;;;;;;;4.17;3.00;;;;;;;18.66;78.51;95209.16;5069126;28;20234;-44
2023/08/12 00:05:06;;;;;;;3.07;2.77;;;;;;;18.65;78.60;95204.94;5069222;28;20265;-44
2023/08/12 00:07:34;;;;;;;4.37;3.10;;;;;;;18.63;78.39;95210.31;5068784;28;20209;-42
2023/08/12 00:10:03;;;;;;;2.87;2.67;;;;;;;18.44;78.53;95180.53;5069066;28;20273;-44
2023/08/12 00:12:30;;;;;;;4.47;2.73;;;;;;;18.60;78.34;95207.25;5069158;28;20222;-43
2023/08/12 00:14:57;;;;;;;4.20;3.13;;;;;;;18.58;78.12;95207.44;5069291;28;20190;-43
2023/08/12 00:17:24;;;;;;;3.57;2.93;;;;;;;18.57;78.37;95208.44;5069086;28;20277;-43
2023/08/12 00:19:51;;;;;;;2.80;2.60;;;;;;;18.55;78.31;95206.00;5071092;28;20678;-43
2023/08/12 00:22:18;;;;;;;3.40;3.17;;;;;;;18.54;78.43;95204.38;5072831;28;20530;-44
2023/08/12 00:24:45;;;;;;;2.77;2.57;;;;;;;18.52;78.39;95201.19;5072859;28;20186;-43
2023/08/12 00:27:13;;;;;;;3.83;2.93;;;;;;;18.51;78.38;95203.94;5073217;28;20240;-43
2023/08/12 00:29:40;;;;;;;4.17;2.80;;;;;;;18.50;78.33;95197.16;5072809;28;20195;-42
2023/08/12 00:32:07;;;;;;;3.30;3.00;;;;;;;18.50;78.44;95199.72;5072582;28;20737;-42
2023/08/12 00:34:33;;;;;;;3.63;3.10;;;;;;;18.49;78.57;95195.53;5072769;28;20256;-45
2023/08/12 00:37:00;;;;;;;3.80;3.20;;;;;;;18.01;78.42;95123.25;5072378;28;20206;-44
2023/08/12 00:39:27;;;;;;;3.27;2.97;;;;;;;18.47;78.65;95194.88;5072809;28;20194;-45
2023/08/12 00:41:54;;;;;;;4.73;2.60;;;;;;;18.46;78.46;95195.88;5072245;28;20668;-44
2023/08/12 00:44:22;;;;;;;3.30;3.00;;;;;;;18.43;78.68;95193.63;5073039;28;20602;-45
2023/08/12 00:46:50;;;;;;;4.40;3.10;;;;;;;18.42;78.79;95194.63;5072496;28;20574;-43
2023/08/12 00:49:17;;;;;;;3.53;3.23;;;;;;;18.42;78.83;95199.78;5072309;28;20190;-43
2023/08/12 00:51:46;;;;;;;4.33;3.10;;;;;;;18.37;79.04;95196.91;5071978;28;20309;-45
2023/08/12 00:54:15;;;;;;;2.93;2.60;;;;;;;18.36;79.37;95193.53;5072691;28;20215;-43
2023/08/12 00:56:42;;;;;;;3.33;3.03;;;;;;;18.31;79.61;95193.25;5072081;28;20540;-45
2023/08/12 00:59:10;;;;;;;3.17;2.90;;;;;;;18.25;79.79;95181.78;5072376;28;20190;-43
2023/08/12 01:01:41;;;;;;;3.90;3.27;;;;;;;18.25;79.89;95194.72;5072043;28;20275;-42
2023/08/12 01:04:08;;;;;;;3.13;2.83;;;;;;;18.25;79.92;95188.75;5072164;28;20222;-43
2023/08/12 01:06:35;;;;;;;3.10;2.80;;;;;;;18.21;80.12;95184.88;5071996;28;20201;-43
2023/08/12 01:09:05;;;;;;;3.73;3.30;;;;;;;18.03;80.19;95164.47;5072083;28;20255;-44
2023/08/12 01:11:39;;;;;;;3.43;3.10;;;;;;;18.16;80.02;95187.19;5072316;28;20186;-43
2023/08/12 01:14:14;;;;;;;3.17;2.87;;;;;;;18.12;80.16;95178.97;5072357;28;20190;-45
2023/08/12 01:16:46;;;;;;;3.37;2.77;;;;;;;18.10;80.13;95178.34;5071780;28;20284;-43
2023/08/12 01:19:24;;;;;;;2.90;2.70;;;;;;;18.08;80.00;95175.09;5071937;28;20201;-43
2023/08/12 01:21:54;;;;;;;3.73;3.00;;;;;;;18.06;79.81;95179.66;5071822;28;20225;-43
2023/08/12 01:24:26;;;;;;;3.13;2.80;;;;;;;18.08;79.88;95182.06;5072031;28;20230;-43
2023/08/12 01:26:52;;;;;;;2.97;2.77;;;;;;;18.04;79.97;95181.59;5071575;28;20670;-43
2023/08/12 01:29:19;;;;;;;3.47;2.93;;;;;;;17.99;80.06;95174.34;5071673;28;20198;-43
2023/08/12 01:31:52;;;;;;;3.40;3.10;;;;;;;18.01;79.70;95176.78;5070565;28;20607;-44
2023/08/12 01:34:26;;;;;;;3.30;3.00;;;;;;;18.00;79.78;95177.75;5072079;28;20194;-43
2023/08/12 01:36:57;;;;;;;5.53;2.90;;;;;;;17.97;79.62;95175.50;5071469;28;20594;-44
2023/08/12 01:39:28;;;;;;;4.20;3.30;;;;;;;17.92;79.49;95167.44;5071626;28;20255;-44
2023/08/12 01:41:56;;;;;;;2.87;2.60;;;;;;;17.95;79.27;95173.06;5071101;28;20244;-42
2023/08/12 01:44:23;;;;;;;2.97;2.70;;;;;;;17.92;79.39;95167.44;5071968;28;20278;-44
2023/08/12 01:46:50;;;;;;;3.00;2.80;;;;;;;17.79;79.59;95157.66;5071444;28;20191;-43
2023/08/12 01:49:17;;;;;;;2.97;2.77;;;;;;;17.89;79.60;95178.94;5071415;28;20751;-43
2023/08/12 01:51:44;;;;;;;3.30;3.00;;;;;;;17.88;79.88;95179.94;5071010;28;20642;-43
2023/08/12 01:54:11;;;;;;;4.53;2.80;;;;;;;17.85;79.98;95175.09;5071576;28;20217;-44
2023/08/12 01:56:39;;;;;;;4.33;3.03;;;;;;;17.83;80.02;95181.41;5071282;28;20183;-43
2023/08/12 01:59:06;;;;;;;2.70;2.50;;;;;;;17.81;79.92;95179.00;5071094;28;20221;-42
2023/08/12 02:01:32;;;;;;;2.77;2.57;;;;;;;17.76;80.03;95176.91;5071247;28;20236;-43
2023/08/12 02:03:59;;;;;;;4.23;3.20;;;;;;;17.74;80.01;95180.63;5070787;28;20199;-43
2023/08/12 02:06:26;;;;;;;5.80;3.00;;;;;;;17.72;80.18;95179.97;5071126;28;20677;-43
2023/08/12 02:08:53;;;;;;;3.30;2.97;;;;;;;17.70;79.95;95179.31;5070644;28;20578;-42
2023/08/12 02:11:20;;;;;;;3.10;2.90;;;;;;;17.72;79.80;95177.41;5070802;28;20251;-44
2023/08/12 02:13:48;;;;;;;3.07;2.53;;;;;;;17.74;79.50;95178.03;5071044;28;20220;-42
2023/08/12 02:16:14;;;;;;;3.37;2.80;;;;;;;17.73;79.35;95174.63;5071020;28;20183;-43
2023/08/12 02:18:41;;;;;;;2.90;2.63;;;;;;;17.69;79.61;95175.94;5070881;28;20186;-43
2023/08/12 02:21:08;;;;;;;4.00;2.83;;;;;;;17.67;79.86;95177.91;5070790;28;20197;-43
2023/08/12 02:23:35;;;;;;;2.90;2.53;;;;;;;17.60;79.84;95158.06;5070674;28;20191;-43
2023/08/12 02:26:03;;;;;;;3.40;3.10;;;;;;;17.61;80.14;95170.81;5071272;28;20243;-43
2023/08/12 02:28:29;;;;;;;5.50;2.70;;;;;;;17.59;80.23;95172.78;5070666;28;20716;-43
2023/08/12 02:30:57;;;;;;;4.40;3.10;;;;;;;17.35;80.24;95136.66;5070353;28;20226;-44
2023/08/12 02:33:24;;;;;;;3.43;3.10;;;;;;;17.53;80.24;95176.84;5070745;28;20226;-42
2023/08/12 02:35:54;;;;;;;4.90;3.20;;;;;;;17.51;80.35;95170.22;5070479;28;20243;-43
2023/08/12 02:38:21;;;;;;;3.57;2.70;;;;;;;17.44;80.50;95171.84;5070551;28;20221;-44
2023/08/12 02:40:49;;;;;;;6.57;2.87;;;;;;;17.46;80.19;95172.50;5070059;28;20198;-43
2023/08/12 02:43:15;;;;;;;5.10;2.93;;;;;;;17.44;80.28;95177.84;5070657;28;20186;-43
2023/08/12 02:45:42;;;;;;;2.77;2.57;;;;;;;17.44;79.85;95175.28;5070336;28;20252;-42
2023/08/12 02:48:10;;;;;;;3.17;2.93;;;;;;;17.39;79.65;95172.34;5070308;28;20205;-42
2023/08/12 02:50:38;;;;;;;3.97;2.47;;;;;;;17.45;79.42;95183.81;5070031;28;20197;-42
2023/08/12 02:53:05;;;;;;;3.43;2.53;;;;;;;17.39;79.26;95172.34;5069975;28;20229;-43
2023/08/12 02:55:32;;;;;;;4.90;2.90;;;;;;;17.43;79.24;95181.38;5069857;28;20927;-42
2023/08/12 02:57:59;;;;;;;3.03;2.73;;;;;;;17.42;78.95;95182.38;5069797;28;20626;-41
2023/08/12 03:00:27;;;;;;;3.63;3.00;;;;;;;17.44;78.92;95189.94;5070054;28;20193;-43
2023/08/12 03:02:54;;;;;;;3.17;2.87;;;;;;;17.45;78.70;95186.41;5069731;28;20676;-42
2023/08/12 03:05:22;;;;;;;2.93;2.70;;;;;;;17.44;78.44;95180.44;5069909;28;20182;-44
2023/08/12 03:07:49;;;;;;;4.37;2.40;;;;;;;17.45;78.26;95183.81;5070277;28;20186;-43
2023/08/12 03:10:16;;;;;;;4.03;2.83;;;;;;;17.48;77.90;95186.84;5070383;28;20182;-42
2023/08/12 03:12:43;;;;;;;5.83;2.70;;;;;;;17.48;78.10;95181.69;5069983;28;20221;-43
2023/08/12 03:15:11;;;;;;;3.40;3.00;;;;;;;17.46;78.18;95181.06;5069965;28;20197;-41
2023/08/12 03:17:38;;;;;;;6.00;2.90;;;;;;;17.50;78.14;95189.31;5069950;28;20212;-43
2023/08/12 03:20:08;;;;;;;3.13;2.50;;;;;;;17.48;78.39;95196.41;5069672;28;20194;-44
2023/08/12 03:22:36;;;;;;;7.80;3.33;;;;;;;17.44;78.27;95184.78;5069496;28;20206;-44
2023/08/12 03:25:04;;;;;;;2.67;2.47;;;;;;;17.51;78.15;95193.50;5069674;28;20198;-43
2023/08/12 03:27:30;;;;;;;3.23;2.93;;;;;;;17.42;78.62;95181.56;5069444;28;20195;-43
2023/08/12 03:29:58;;;;;;;8.43;3.00;;;;;;;17.38;79.03;95193.22;5069650;28;20190;-44
2023/08/12 03:32:25;;;;;;;6.50;3.20;;;;;;;17.34;79.43;95197.91;5069295;28;20257;-43
2023/08/12 03:34:52;;;;;;;3.13;2.90;;;;;;;17.30;79.57;95186.28;5069804;28;20190;-43
2023/08/12 03:37:19;;;;;;;2.83;2.63;;;;;;;17.32;79.63;95199.06;5069395;28;20198;-42
2023/08/12 03:39:47;;;;;;;3.00;2.70;;;;;;;17.24;80.27;95199.91;5069485;28;20194;-41
2023/08/12 03:42:15;;;;;;;3.00;2.80;;;;;;;17.24;80.43;95202.47;5069623;28;20193;-42
2023/08/12 03:44:42;;;;;;;3.80;2.97;;;;;;;17.20;80.71;95196.81;5069915;28;20183;-44
2023/08/12 03:47:08;;;;;;;3.30;3.00;;;;;;;17.24;80.45;95197.31;5069471;28;20198;-43
2023/08/12 03:49:35;;;;;;;6.30;2.80;;;;;;;17.22;80.53;95196.66;5069661;28;20194;-45
2023/08/12 03:52:03;;;;;;;3.40;3.10;;;;;;;17.23;80.40;95195.69;5069389;28;20190;-44
2023/08/12 03:54:29;;;;;;;3.10;2.80;;;;;;;17.17;80.59;95193.75;5073232;28;20260;-51
2023/08/12 03:56:57;;;;;;;3.67;3.37;;;;;;;17.24;80.39;95208.44;5075870;28;20664;-44
2023/08/12 03:59:24;;;;;;;3.67;2.63;;;;;;;17.24;80.30;95198.09;5075559;28;20198;-43
2023/08/12 04:01:51;;;;;;;5.30;3.40;;;;;;;17.28;79.99;95198.59;5075856;28;20201;-44
2023/08/12 04:04:18;;;;;;;3.20;2.67;;;;;;;17.34;80.11;95203.09;5075619;28;20240;-43
2023/08/12 04:06:44;;;;;;;4.77;3.27;;;;;;;17.37;80.09;95199.38;5076216;28;20551;-44
2023/08/12 04:09:11;;;;;;;3.37;2.93;;;;;;;17.43;79.90;95201.28;5075863;28;20190;-43
2023/08/12 04:11:38;;;;;;;3.10;2.80;;;;;;;17.47;79.95;95197.38;5076066;28;20260;-43
2023/08/12 04:14:06;;;;;;;3.90;3.23;;;;;;;17.51;80.05;95209.00;5075507;28;20210;-43
2023/08/12 04:16:33;;;;;;;5.50;2.90;;;;;;;17.51;79.64;95198.66;5075888;28;20202;-42
2023/08/12 04:19:00;;;;;;;3.47;3.17;;;;;;;17.55;79.73;95205.13;5075971;28;20216;-43
2023/08/12 04:21:26;;;;;;;3.53;3.00;;;;;;;17.62;79.51;95208.66;5076111;28;20191;-44
2023/08/12 04:23:53;;;;;;;2.83;2.53;;;;;;;17.68;79.49;95202.00;5075873;28;20567;-44
2023/08/12 04:26:20;;;;;;;3.30;3.00;;;;;;;17.69;79.39;95209.56;5075608;28;20726;-44
2023/08/12 04:28:47;;;;;;;5.77;3.40;;;;;;;17.75;78.89;95208.94;5076169;28;20183;-44
2023/08/12 04:31:15;;;;;;;4.13;2.73;;;;;;;17.34;79.14;95137.66;5075550;28;20291;-43
2023/08/12 04:33:42;;;;;;;3.33;2.87;;;;;;;17.89;78.83;95210.00;5075892;28;20229;-43
2023/08/12 04:36:08;;;;;;;6.97;3.30;;;;;;;17.98;78.37;95214.16;5075470;28;20197;-44
2023/08/12 04:38:35;;;;;;;4.53;3.40;;;;;;;18.03;78.14;95219.63;5075839;28;20677;-43
2023/08/12 04:41:03;;;;;;;5.37;3.33;;;;;;;18.13;77.46;95216.00;5075292;28;20662;-43
2023/08/12 04:43:30;;;;;;;4.20;3.20;;;;;;;18.23;77.00;95214.03;5075705;28;20281;-44
2023/08/12 04:45:56;;;;;;;6.10;3.30;;;;;;;18.35;76.17;95220.41;5075275;28;20685;-43
2023/08/12 04:48:25;;;;;;;6.30;3.20;;;;;;;18.50;75.60;95221.25;5075438;28;20197;-43
2023/08/12 04:50:51;;;;;;;3.90;3.10;;;;;;;18.78;74.08;95223.31;5075211;28;20198;-43
2023/08/12 04:53:18;;;;;;;4.73;3.37;;;;;;;19.09;72.18;95214.66;5075140;28;20214;-42
2023/08/12 04:55:45;;;;;;;4.60;3.53;;;;;;;19.36;70.68;95216.63;5075701;28;20222;-43
2023/08/12 04:58:12;;;;;;;8.70;3.00;;;;;;;19.60;69.41;95209.53;5075232;28;20228;-44
2023/08/12 05:00:38;;;;;;;4.53;3.00;;;;;;;19.84;67.92;95211.88;5075693;28;20206;-42
2023/08/12 05:03:05;;;;;;;4.63;3.37;;;;;;;20.02;67.45;95207.06;5075220;28;20191;-44
2023/08/12 05:05:33;;;;;;;6.20;3.47;;;;;;;20.15;67.18;95218.59;5072793;28;20236;-43
2023/08/12 05:08:00;;;;;;;5.37;3.53;;;;;;;20.23;66.74;95224.47;5072325;28;20179;-43
2023/08/12 05:10:27;;;;;;;4.70;3.38;;;;;;;20.26;66.64;95224.13;5071858;28;20183;-45
2023/08/12 05:12:54;;;;;;;6.72;3.45;;;;;;;20.49;65.75;95218.75;5071991;28;20194;-45
2023/08/12 05:15:21;;;;;;;3.67;3.38;;;;;;;20.63;64.99;95226.69;5071941;28;20221;-44
2023/08/12 05:17:48;;;;;;;3.65;2.50;;;;;;;20.73;64.73;95219.38;5071763;28;20179;-41
2023/08/12 05:20:14;;;;;;;6.40;3.08;;;;;;;20.91;64.13;95224.13;5071772;28;20650;-44
2023/08/12 05:22:43;;;;;;;4.60;3.35;;;;;;;20.95;64.17;95230.56;5071480;28;20198;-43
2023/08/12 05:25:09;;;;;;;8.68;3.72;;;;;;;20.91;64.47;95224.13;5071917;28;20197;-44
2023/08/12 05:27:36;;;;;;;4.13;3.58;;;;;;;20.92;64.33;95230.94;5071627;28;20689;-43
2023/08/12 05:30:04;;;;;;;5.38;3.58;;;;;;;20.74;64.73;95237.38;5071487;28;20186;-44
2023/08/12 05:32:31;;;;;;;4.13;3.27;;;;;;;20.59;65.22;95231.44;5071768;28;20811;-43
2023/08/12 05:34:57;;;;;;;7.05;3.67;;;;;;;20.65;65.61;95240.31;5071495;28;20605;-44
2023/08/12 05:37:24;;;;;;;7.72;3.88;;;;;;;20.75;65.43;95231.19;5071550;28;20198;-42
2023/08/12 05:39:52;;;;;;;5.63;3.35;;;;;;;20.97;64.77;95229.34;5071705;28;20201;-43
2023/08/12 05:42:19;;;;;;;6.05;3.22;;;;;;;21.14;63.94;95239.47;5071785;28;20264;-42
2023/08/12 05:44:46;;;;;;;4.43;3.20;;;;;;;21.32;63.26;95232.03;5071345;28;20204;-43
2023/08/12 05:47:12;;;;;;;6.25;3.45;;;;;;;21.72;62.04;95240.06;5071257;28;20194;-44
2023/08/12 05:49:39;;;;;;;8.20;3.78;;;;;;;21.88;61.38;95212.88;5071074;28;20206;-44
2023/08/12 05:52:06;;;;;;;6.43;3.00;;;;;;;22.33;60.13;95244.53;5071260;28;20252;-44
2023/08/12 05:54:33;;;;;;;3.22;2.63;;;;;;;22.49;58.67;95244.13;5070891;28;20287;-48
2023/08/12 05:57:01;;;;;;;7.10;3.08;;;;;;;22.43;58.25;95235.31;5071033;28;20194;-45
2023/08/12 05:59:28;;;;;;;3.20;2.78;;;;;;;22.37;58.97;95235.31;5070792;28;20712;-45
2023/08/12 06:01:55;;;;;;;3.10;2.80;;;;;;;22.52;58.68;95234.13;5071155;28;20288;-44
2023/08/12 06:04:21;;;;;;;4.22;2.83;;;;;;;22.79;57.68;95231.53;5070820;28;20669;-45
2023/08/12 06:06:48;;;;;;;3.28;2.47;;;;;;;22.98;56.99;95230.00;5070672;28;20202;-44
2023/08/12 06:09:15;;;;;;;3.15;2.75;;;;;;;23.24;56.18;95218.72;5070824;28;20194;-44
2023/08/12 06:11:42;;;;;;;2.97;2.25;;;;;;;23.64;55.32;95222.03;5070553;28;20197;-43
2023/08/12 06:14:10;;;;;;;2.75;2.55;;;;;;;23.96;54.61;95220.34;5071743;28;20210;-43
2023/08/12 06:16:37;;;;;;;3.67;2.70;;;;;;;24.23;53.44;95215.78;5071985;28;20195;-42
2023/08/12 06:19:04;;;;;;;2.80;2.60;;;;;;;24.47;53.56;95218.69;5070828;28;20202;-44
2023/08/12 06:21:30;;;;;;;2.80;2.40;;;;;;;24.73;53.21;95213.28;5070743;28;20622;-44
2023/08/12 06:23:57;;;;;;;6.68;2.42;;;;;;;24.94;51.75;95219.94;5071063;28;20658;-44
2023/08/12 06:26:24;;;;;;;3.63;2.67;;;;;;;24.96;51.59;95215.31;5070607;28;20198;-43
2023/08/12 06:28:51;;;;;;;2.80;2.47;;;;;;;24.99;52.06;95219.31;5071013;28;20190;-46
2023/08/12 06:31:19;;;;;;;4.68;3.03;;;;;;;25.03;51.11;95207.41;5070410;28;20725;-44
2023/08/12 06:33:46;;;;;;;2.97;2.47;;;;;;;24.97;50.94;95214.31;5070412;28;20218;-45
2023/08/12 06:36:12;;;;;;;3.13;2.33;;;;;;;24.81;51.72;95206.97;5070473;28;20190;-43
2023/08/12 06:38:39;;;;;;;4.85;2.63;;;;;;;24.71;52.08;95204.84;5070472;28;20292;-46
2023/08/12 06:41:06;;;;;;;4.65;2.40;;;;;;;24.97;52.72;95203.03;5070538;28;20247;-46
2023/08/12 06:43:33;;;;;;;4.05;2.85;;;;;;;25.35;51.36;95205.53;5070122;28;20217;-45
2023/08/12 06:45:59;;;;;;;5.07;2.58;;;;;;;25.48;50.40;95210.63;5070245;28;20194;-45
2023/08/12 06:48:28;;;;;;;3.55;2.72;;;;;;;25.37;50.54;95203.47;5069878;28;20633;-44
2023/08/12 06:50:56;;;;;;;3.28;2.40;;;;;;;25.25;50.57;95200.78;5070271;28;20666;-46
2023/08/12 06:53:23;;;;;;;2.65;2.40;;;;;;;25.22;50.79;95200.44;5070035;28;20182;-43
2023/08/12 06:55:49;;;;;;;3.10;2.47;;;;;;;25.23;50.69;95197.59;5070388;28;20190;-44
2023/08/12 06:58:16;;;;;;;2.83;2.45;;;;;;;25.30;49.98;95194.88;5069675;28;20197;-43
2023/08/12 07:00:43;;;;;;;3.97;2.42;;;;;;;25.23;50.05;95200.19;5070340;28;20182;-44
2023/08/12 07:03:10;;;;;;;3.58;2.70;;;;;;;25.19;50.33;95195.63;5069571;28;20191;-44
2023/08/12 07:05:38;;;;;;;3.00;2.60;;;;;;;25.44;50.15;95201.59;5069965;28;20201;-45
2023/08/12 07:08:05;;;;;;;4.40;3.00;;;;;;;25.66;49.94;95191.50;5069696;28;20638;-45
2023/08/12 07:10:37;;;;;;;8.60;2.60;;;;;;;25.96;48.68;95198.63;5069916;28;20672;-44
2023/08/12 07:13:04;;;;;;;4.10;2.88;;;;;;;26.15;48.19;95194.13;5069822;28;20198;-50
2023/08/12 07:15:31;;;;;;;3.65;2.80;;;;;;;26.42;48.18;95200.59;5069534;28;20721;-45
2023/08/12 07:17:58;;;;;;;4.78;2.58;;;;;;;26.69;46.37;95189.75;5069910;28;20194;-44
2023/08/12 07:20:25;;;;;;;5.03;3.00;;;;;;;27.06;45.65;95202.69;5069842;28;20190;-45
2023/08/12 07:22:53;;;;;;;3.22;2.75;;;;;;;27.10;45.40;95198.59;5070487;28;20198;-44
2023/08/12 07:25:20;;;;;;;3.33;2.63;;;;;;;26.93;45.56;95198.44;5069899;28;20178;-44
2023/08/12 07:27:47;;;;;;;4.45;2.65;;;;;;;26.71;45.09;95200.81;5069610;28;20248;-45
2023/08/12 07:30:13;;;;;;;2.75;2.55;;;;;;;26.63;45.65;95196.69;5068581;28;20225;-45
2023/08/12 07:32:42;;;;;;;2.88;2.67;;;;;;;26.95;45.29;95199.03;5069514;28;20198;-45
2023/08/12 07:35:09;;;;;;;3.88;2.53;;;;;;;26.98;45.08;95207.22;5068751;28;20593;-44
2023/08/12 07:37:36;;;;;;;2.80;2.40;;;;;;;27.06;44.59;95203.47;5069648;28;20272;-44
2023/08/12 07:40:05;;;;;;;7.80;2.85;;;;;;;27.24;44.10;95192.88;5069169;28;20190;-44
2023/08/12 07:42:31;;;;;;;5.45;2.33;;;;;;;27.43;44.63;95193.56;5069336;28;20201;-46
2023/08/12 07:44:59;;;;;;;7.90;2.45;;;;;;;27.60;43.42;95166.59;5069455;28;20190;-44
2023/08/12 07:47:25;;;;;;;2.50;2.30;;;;;;;27.84;42.63;95186.53;5069177;28;20210;-43
2023/08/12 07:49:52;;;;;;;2.90;2.70;;;;;;;27.82;42.80;95185.97;5068981;28;20190;-43
2023/08/12 07:52:19;;;;;;;3.30;2.35;;;;;;;27.68;42.47;95177.53;5068785;28;20214;-42
2023/08/12 07:54:46;;;;;;;5.47;3.28;;;;;;;27.54;43.39;95186.69;5069019;28;20241;-43
2023/08/12 07:57:14;;;;;;;3.33;2.78;;;;;;;27.53;43.65;95182.47;5068898;28;20182;-46
2023/08/12 07:59:41;;;;;;;4.72;2.70;;;;;;;27.77;42.76;95178.00;5069029;28;20252;-43
2023/08/12 08:02:08;;;;;;;8.10;2.55;;;;;;;28.05;42.70;95173.78;5068770;28;20194;-45
2023/08/12 08:04:35;;;;;;;6.10;3.45;;;;;;;28.21;42.36;95168.56;5069157;28;20856;-44
2023/08/12 08:07:05;;;;;;;3.33;2.45;;;;;;;28.38;42.04;95173.09;5069037;28;20190;-44
2023/08/12 08:09:33;;;;;;;5.43;2.85;;;;;;;28.65;42.53;95170.63;5069356;28;20205;-45
2023/08/12 08:12:00;;;;;;;3.78;3.20;;;;;;;28.94;41.64;95172.16;5069103;28;20189;-45
2023/08/12 08:14:28;;;;;;;6.28;2.80;;;;;;;29.10;41.26;95175.84;5068922;28;20229;-44
2023/08/12 08:16:56;;;;;;;4.65;2.60;;;;;;;29.14;40.39;95166.38;5068820;28;20198;-45
2023/08/12 08:19:24;;;;;;;7.05;2.63;;;;;;;29.09;40.25;95176.06;5069165;28;20209;-45
2023/08/12 08:21:50;;;;;;;5.20;3.55;;;;;;;28.90;40.91;95167.59;5068834;28;20540;-45
2023/08/12 08:24:17;;;;;;;3.33;2.40;;;;;;;28.77;41.00;95174.00;5069060;28;20194;-44
2023/08/12 08:26:45;;;;;;;3.53;2.50;;;;;;;28.72;40.97;95168.66;5068485;28;20577;-43
2023/08/12 08:29:12;;;;;;;5.05;2.78;;;;;;;28.86;40.92;95169.91;5068759;28;20288;-43
2023/08/12 08:31:40;;;;;;;3.30;2.35;;;;;;;29.04;40.27;95162.81;5068546;28;20610;-42
2023/08/12 08:34:07;;;;;;;3.75;2.70;;;;;;;29.24;40.69;95161.28;5068632;28;20597;-43
2023/08/12 08:36:34;;;;;;;3.17;2.70;;;;;;;29.23;39.87;95161.50;5068809;28;20198;-45
2023/08/12 08:39:00;;;;;;;2.80;2.50;;;;;;;29.35;39.05;95154.28;5068829;28;20194;-44
2023/08/12 08:41:31;;;;;;;3.92;2.45;;;;;;;29.53;38.53;95160.31;5072003;28;20191;-44
2023/08/12 08:44:02;;;;;;;3.22;2.50;;;;;;;29.53;38.90;95158.47;5072074;28;20186;-45
2023/08/12 08:46:30;;;;;;;3.60;2.75;;;;;;;29.44;38.65;95158.09;5072238;28;20299;-44
2023/08/12 08:48:59;;;;;;;7.32;2.97;;;;;;;29.42;39.35;95154.91;5072266;28;20228;-44
2023/08/12 08:51:27;;;;;;;2.83;2.30;;;;;;;29.43;38.39;95150.44;5072307;28;20194;-45
2023/08/12 08:53:55;;;;;;;3.38;2.47;;;;;;;29.25;38.78;95146.25;5072217;28;20191;-44
2023/08/12 08:56:22;;;;;;;8.52;2.70;;;;;;;29.22;38.99;95146.75;5072100;28;20201;-44
2023/08/12 08:58:49;;;;;;;2.92;2.72;;;;;;;29.12;39.35;95151.88;5072023;28;20179;-43
2023/08/12 09:01:22;;;;;;;2.83;2.63;;;;;;;29.21;38.81;95147.78;5071899;28;20573;-44
2023/08/12 09:03:50;;;;;;;2.95;2.47;;;;;;;29.21;38.24;95145.94;5071770;28;20198;-44
2023/08/12 09:06:19;;;;;;;3.22;2.20;;;;;;;29.28;38.33;95142.34;5072129;28;20256;-43
2023/08/12 09:08:48;;;;;;;2.60;2.30;;;;;;;29.43;38.61;95145.16;5071695;28;20201;-45
2023/08/12 09:11:18;;;;;;;2.67;2.47;;;;;;;29.48;38.62;95147.88;5071913;28;20194;-45
2023/08/12 09:13:44;;;;;;;6.70;2.50;;;;;;;29.43;38.51;95134.63;5071664;28;20189;-44
2023/08/12 09:16:11;;;;;;;4.80;3.00;;;;;;;29.55;38.34;95131.88;5072016;28;20295;-45
2023/08/12 09:18:39;;;;;;;2.78;2.53;;;;;;;29.51;38.68;95134.19;5071848;28;20209;-44
2023/08/12 09:21:06;;;;;;;4.15;2.75;;;;;;;29.44;38.70;95126.47;5072036;28;20198;-44
2023/08/12 09:23:37;;;;;;;5.25;3.92;;;;;;;29.11;39.31;95066.78;5071516;28;20668;-44
2023/08/12 09:26:13;;;;;;;3.08;2.72;;;;;;;29.32;38.30;95122.34;5072145;28;20198;-43
2023/08/12 09:28:40;;;;;;;3.97;2.72;;;;;;;29.11;38.74;95123.94;5071607;28;20205;-42
2023/08/12 09:31:07;;;;;;;3.00;2.67;;;;;;;28.83;39.63;95116.94;5071567;28;20226;-43
2023/08/12 09:33:39;;;;;;;4.60;2.08;;;;;;;28.75;39.08;95115.50;5071397;28;20222;-44
2023/08/12 09:36:06;;;;;;;3.42;2.65;;;;;;;28.52;39.64;95116.47;5071595;28;20694;-43
2023/08/12 09:38:33;;;;;;;3.42;2.60;;;;;;;28.44;39.76;95120.28;5071428;28;20187;-44
2023/08/12 09:41:01;;;;;;;4.03;3.13;;;;;;;28.37;39.58;95090.72;5071510;28;20197;-45
2023/08/12 09:43:29;;;;;;;3.67;2.92;;;;;;;28.50;39.89;95106.19;5071648;28;20650;-43
2023/08/12 09:45:58;;;;;;;3.20;2.90;;;;;;;28.53;40.40;95110.16;5071166;28;20259;-44
2023/08/12 09:48:26;;;;;;;3.25;2.67;;;;;;;28.55;40.23;95102.06;5071437;28;20252;-44
2023/08/12 09:50:53;;;;;;;3.83;2.40;;;;;;;28.53;39.37;95083.06;5071172;28;20255;-44
2023/08/12 09:53:20;;;;;;;3.95;2.60;;;;;;;28.55;39.32;95097.59;5070456;28;20285;-44
2023/08/12 09:55:48;;;;;;;5.20;2.40;;;;;;;28.48;39.60;95091.66;5071043;28;20264;-44
2023/08/12 09:58:19;;;;;;;4.38;2.40;;;;;;;28.62;39.46;95095.56;5071118;28;20191;-44
2023/08/12 10:00:46;;;;;;;3.75;2.53;;;;;;;28.72;39.56;95087.84;5071061;28;20187;-44
2023/08/12 10:03:15;;;;;;;5.47;3.00;;;;;;;28.82;39.44;95084.53;5071043;28;20222;-45
2023/08/12 10:05:42;;;;;;;3.20;2.60;;;;;;;28.89;39.48;95081.75;5070947;28;20218;-43
2023/08/12 10:08:09;;;;;;;2.55;2.35;;;;;;;28.68;38.99;95070.94;5071322;28;20186;-45
2023/08/12 10:10:37;;;;;;;3.55;2.15;;;;;;;28.70;39.20;95071.47;5070780;28;20647;-43
2023/08/12 10:13:07;;;;;;;2.63;2.30;;;;;;;28.72;39.22;95085.19;5071017;28;20197;-45
2023/08/12 10:15:35;;;;;;;2.65;2.40;;;;;;;28.55;38.32;95070.47;5070852;28;20225;-44
2023/08/12 10:18:02;;;;;;;5.20;2.20;;;;;;;28.19;38.37;95018.06;5071184;28;20201;-43
2023/08/12 10:20:32;;;;;;;6.88;3.92;;;;;;;28.41;39.06;95081.31;5070484;28;20195;-43
2023/08/12 10:23:01;;;;;;;2.92;2.60;;;;;;;28.22;39.40;95077.28;5070908;28;20191;-44
2023/08/12 10:25:34;;;;;;;3.10;2.45;;;;;;;28.13;39.43;95073.47;5070442;28;20688;-43
2023/08/12 10:28:01;;;;;;;2.50;2.30;;;;;;;28.14;39.67;95072.41;5070867;28;20182;-43
2023/08/12 10:30:29;;;;;;;2.67;2.47;;;;;;;28.23;38.76;95063.09;5070277;28;20708;-43
2023/08/12 10:32:59;;;;;;;3.90;2.63;;;;;;;28.30;38.81;95065.56;5070391;28;20213;-42
2023/08/12 10:35:45;;;;;;;2.55;2.20;;;;;;;28.37;39.01;95067.03;5070254;28;20229;-43
2023/08/12 10:38:14;;;;;;;2.45;2.20;;;;;;;28.26;39.34;95047.63;5070402;28;20281;-44
2023/08/12 10:40:41;;;;;;;4.68;2.88;;;;;;;28.27;39.17;95061.56;5070089;28;20205;-42
2023/08/12 10:43:08;;;;;;;3.13;2.70;;;;;;;28.15;38.79;95051.16;5070415;28;20198;-45
2023/08/12 10:45:47;;;;;;;2.70;2.50;;;;;;;28.27;39.16;95054.47;5070213;28;20218;-44
2023/08/12 10:48:24;;;;;;;2.50;2.30;;;;;;;28.27;39.11;95051.06;5070400;28;20581;-45
2023/08/12 10:50:55;;;;;;;2.13;2.03;;;;;;;28.19;39.53;95039.09;5069815;28;20195;-44
2023/08/12 10:53:31;;;;;;;3.88;2.35;;;;;;;28.30;39.10;95036.63;5070103;28;20677;-45
2023/08/12 10:55:59;;;;;;;2.67;2.42;;;;;;;28.31;39.05;95051.38;5069776;28;20304;-44
2023/08/12 10:58:27;;;;;;;2.38;2.17;;;;;;;28.39;38.54;95040.50;5070011;28;20193;-44
2023/08/12 11:00:55;;;;;;;2.70;2.50;;;;;;;28.39;39.02;95037.84;5069997;28;20187;-42
2023/08/12 11:03:23;;;;;;;2.97;2.30;;;;;;;28.45;38.88;95029.81;5069116;28;20672;-42
2023/08/12 11:05:55;;;;;;;4.43;2.80;;;;;;;28.44;37.76;95030.81;5069886;28;20194;-43
2023/08/12 11:08:25;;;;;;;2.60;2.25;;;;;;;28.41;37.89;95036.59;5069675;28;20201;-43
2023/08/12 11:10:55;;;;;;;2.50;2.30;;;;;;;28.45;38.34;95039.50;5069705;28;20274;-46
2023/08/12 11:13:22;;;;;;;3.78;2.60;;;;;;;28.60;37.32;95031.06;5069548;28;20186;-43
2023/08/12 11:15:49;;;;;;;2.65;2.45;;;;;;;28.57;37.69;95026.28;5069373;28;20213;-43
2023/08/12 11:18:18;;;;;;;2.22;2.03;;;;;;;28.45;37.89;95021.91;5069549;28;20213;-43
2023/08/12 11:20:48;;;;;;;2.72;2.53;;;;;;;28.53;38.00;95014.63;5069378;28;20248;-44
2023/08/12 11:23:15;;;;;;;2.50;2.30;;;;;;;28.72;38.17;95023.88;5069745;28;20194;-43
2023/08/12 11:25:44;;;;;;;3.38;2.13;;;;;;;28.78;37.92;95011.56;5069389;28;20197;-43
2023/08/12 11:28:11;;;;;;;4.22;2.20;;;;;;;28.87;37.81;95008.25;5069625;28;20222;-42
2023/08/12 11:30:41;;;;;;;4.95;2.58;;;;;;;28.88;37.63;95014.31;5069585;28;20229;-46
2023/08/12 11:33:08;;;;;;;2.13;2.03;;;;;;;28.70;37.09;95010.13;5069789;28;20263;-46
2023/08/12 11:35:36;;;;;;;3.47;2.17;;;;;;;28.63;37.09;95020.84;5069597;28;20226;-46